createdAt,value
2022-07-27T07:06:05.044Z,92.00
2022-07-27T07:08:33.341Z,91.00
2022-07-27T07:11:01.652Z,90.80
2022-07-27T07:13:32.145Z,90.70
2022-07-27T07:16:03.685Z,90.70
2022-07-27T07:18:32.371Z,90.40
2022-07-27T07:21:02.623Z,90.40
2022-07-27T07:23:31.040Z,90.50
2022-07-27T07:25:59.318Z,90.50
2022-07-27T07:28:27.627Z,90.50
2022-07-27T07:30:55.866Z,90.50
2022-07-27T07:33:24.228Z,90.40
2022-07-27T07:36:12.702Z,90.20
2022-07-27T07:38:42.136Z,90.20
2022-07-27T07:41:10.716Z,90.00
2022-07-27T07:43:39.847Z,89.90
2022-07-27T07:46:08.772Z,89.40
2022-07-27T07:48:39.543Z,89.00
2022-07-27T07:51:10.320Z,88.70
2022-07-27T07:53:53.261Z,88.00
2022-07-27T07:56:21.488Z,88.00
2022-07-27T07:58:50.016Z,87.90
2022-07-27T08:01:18.333Z,87.80
2022-07-27T08:03:51.054Z,87.50
2022-07-27T08:06:19.820Z,87.80
2022-07-27T08:08:49.756Z,88.00
2022-07-27T08:11:18.048Z,87.90
2022-07-27T08:13:46.783Z,87.90
2022-07-27T08:16:16.408Z,87.60
2022-07-27T08:18:44.884Z,87.70
2022-07-27T08:21:13.213Z,87.60
2022-07-27T08:23:41.639Z,87.70
2022-07-27T08:26:11.227Z,87.60
2022-07-27T08:28:39.445Z,87.90
2022-07-27T08:31:13.821Z,88.20
2022-07-27T08:33:43.374Z,87.70
2022-07-27T08:38:40.702Z,87.80
2022-07-27T08:41:11.653Z,88.30
2022-07-27T08:43:42.950Z,87.80
2022-07-27T08:46:12.648Z,87.60
2022-07-27T08:48:41.785Z,87.00
2022-07-27T08:51:10.444Z,86.30
2022-07-27T08:53:53.064Z,85.80
2022-07-27T08:56:23.453Z,85.30
2022-07-27T08:58:51.965Z,84.60
2022-07-27T09:01:20.594Z,83.80
2022-07-27T09:03:51.970Z,83.50
2022-07-27T09:06:41.111Z,83.50
2022-07-27T09:09:09.947Z,83.40
2022-07-27T09:11:40.889Z,83.60
2022-07-27T09:14:12.543Z,84.00
2022-07-27T09:17:15.249Z,84.00
2022-07-27T09:19:30.131Z,84.00
2022-07-27T09:22:03.109Z,84.40
2022-07-27T09:24:46.674Z,84.60
2022-07-27T09:27:18.458Z,84.70
2022-07-27T09:29:47.785Z,85.00
2022-07-27T09:32:26.644Z,85.30
2022-07-27T09:35:15.185Z,85.20
2022-07-27T09:37:43.438Z,85.00
2022-07-27T09:40:13.725Z,84.70
2022-07-27T09:45:35.458Z,83.90
2022-07-27T09:48:16.721Z,83.70
2022-07-27T09:51:01.261Z,83.50
2022-07-27T09:53:43.723Z,83.40
2022-07-27T09:56:16.076Z,83.00
2022-07-27T09:58:48.033Z,82.90
2022-07-27T10:01:19.462Z,82.40
2022-07-27T10:03:51.294Z,82.00
2022-07-27T10:06:20.186Z,81.50
2022-07-27T10:08:53.397Z,80.60
2022-07-27T10:11:23.043Z,79.30
2022-07-27T10:13:54.041Z,78.90
2022-07-27T10:16:24.797Z,79.20
2022-07-27T10:19:02.202Z,79.30
2022-07-27T10:21:38.120Z,78.50
2022-07-27T10:24:09.410Z,78.10
2022-07-27T10:26:39.456Z,78.20
2022-07-27T10:29:18.798Z,78.40
2022-07-27T10:31:59.715Z,78.00
2022-07-27T10:34:36.551Z,78.00
2022-07-27T10:37:13.219Z,77.70
2022-07-27T10:39:44.405Z,77.40
2022-07-27T10:42:27.831Z,76.40
2022-07-27T10:45:08.961Z,75.00
2022-07-27T10:47:42.858Z,74.80
2022-07-27T10:50:31.864Z,75.10
2022-07-27T10:53:18.686Z,74.90
2022-07-27T10:55:53.843Z,74.40
2022-07-27T10:58:48.452Z,74.40
2022-07-27T11:01:22.898Z,74.40
2022-07-27T11:03:56.354Z,74.60
2022-07-27T11:06:55.437Z,74.20
2022-07-27T11:12:04.851Z,74.10
2022-07-27T11:14:44.142Z,73.50
2022-07-27T11:20:03.909Z,74.40
2022-07-27T11:25:23.432Z,76.10
2022-07-27T11:27:52.619Z,76.60
2022-07-27T11:30:26.023Z,76.10
2022-07-27T11:32:56.120Z,76.50
2022-07-27T11:35:24.847Z,76.80
2022-07-27T11:38:00.932Z,76.90
2022-07-27T11:43:33.770Z,76.90
2022-07-27T11:46:16.851Z,77.30
2022-07-27T11:49:13.348Z,77.70
2022-07-27T11:51:44.339Z,77.90
2022-07-27T11:54:14.612Z,77.70
2022-07-27T11:56:46.638Z,77.50
2022-07-27T11:59:18.362Z,77.80
2022-07-27T12:01:52.650Z,77.50
2022-07-27T12:04:36.000Z,76.40
2022-07-27T12:07:07.721Z,76.40
2022-07-27T12:09:39.195Z,76.20
2022-07-27T12:12:14.623Z,76.40
2022-07-27T12:14:46.181Z,76.20
2022-07-27T12:17:27.504Z,76.00
2022-07-27T12:20:06.899Z,76.30
2022-07-27T12:22:38.447Z,76.70
2022-07-27T12:25:16.611Z,76.40
2022-07-27T12:27:56.086Z,77.00
2022-07-27T12:30:31.772Z,76.80
2022-07-27T12:33:00.351Z,76.20
2022-07-27T12:35:37.374Z,76.40
2022-07-27T12:38:09.461Z,76.10
2022-07-27T12:40:46.169Z,75.80
2022-07-27T12:43:17.675Z,75.20
2022-07-27T12:45:46.899Z,74.20
2022-07-27T12:48:17.625Z,74.70
2022-07-27T12:50:49.722Z,74.40
2022-07-27T12:53:18.758Z,74.80
2022-07-27T12:55:47.011Z,75.00
2022-07-27T12:58:15.399Z,75.40
2022-07-27T13:00:43.915Z,76.10
2022-07-27T13:03:12.284Z,76.10
2022-07-27T13:05:40.770Z,76.20
2022-07-27T13:08:11.177Z,76.50
2022-07-27T13:10:39.945Z,76.60
2022-07-27T13:13:09.781Z,76.10
2022-07-27T13:15:38.486Z,77.00
2022-07-27T13:18:08.147Z,77.10
2022-07-27T13:20:37.599Z,76.40
2022-07-27T13:23:10.375Z,77.20
2022-07-27T13:25:43.234Z,77.10
2022-07-27T13:28:12.214Z,77.20
2022-07-27T13:30:40.712Z,77.20
2022-07-27T13:33:09.360Z,77.10
2022-07-27T13:35:37.777Z,77.50
2022-07-27T13:38:06.413Z,78.70
2022-07-27T13:40:36.107Z,78.60
2022-07-27T13:43:09.291Z,79.20
2022-07-27T13:45:43.445Z,78.60
2022-07-27T13:48:13.480Z,78.60
2022-07-27T13:50:42.169Z,79.20
2022-07-27T13:53:15.350Z,79.10
2022-07-27T13:55:45.618Z,79.10
2022-07-27T13:58:13.951Z,80.70
2022-07-27T14:00:42.434Z,79.80
2022-07-27T14:03:11.463Z,80.30
2022-07-27T14:05:48.787Z,80.10
2022-07-27T14:08:18.589Z,79.40
2022-07-27T14:10:48.540Z,79.10
2022-07-27T14:13:21.626Z,79.30
2022-07-27T14:15:54.799Z,79.00
2022-07-27T14:18:28.855Z,77.50
2022-07-27T14:20:59.152Z,77.50
2022-07-27T14:23:28.525Z,78.40
2022-07-27T14:25:59.560Z,78.20
2022-07-27T14:28:29.477Z,77.70
2022-07-27T14:30:58.889Z,77.70
2022-07-27T14:33:36.732Z,78.20
2022-07-27T14:36:06.521Z,78.50
2022-07-27T14:38:34.878Z,78.10
2022-07-27T14:41:04.718Z,78.20
2022-07-27T14:43:33.574Z,78.10
2022-07-27T14:46:02.047Z,78.10
2022-07-27T14:49:03.353Z,78.40
2022-07-27T14:51:19.288Z,78.60
2022-07-27T14:53:47.537Z,79.20
2022-07-27T14:56:17.338Z,79.40
2022-07-27T14:58:45.650Z,78.80
2022-07-27T15:01:16.827Z,78.80
2022-07-27T15:03:46.472Z,79.40
2022-07-27T15:06:14.979Z,80.10
2022-07-27T15:08:43.240Z,80.10
2022-07-27T15:11:11.613Z,80.30
2022-07-27T15:13:41.220Z,81.20
2022-07-27T15:16:11.441Z,81.70
2022-07-27T15:18:40.228Z,81.90
2022-07-27T15:21:13.506Z,82.20
2022-07-27T15:23:43.207Z,82.20
2022-07-27T15:26:12.563Z,81.90
2022-07-27T15:28:42.850Z,81.40
2022-07-27T15:31:11.858Z,81.50
2022-07-27T15:33:41.367Z,81.70
2022-07-27T15:36:10.024Z,81.10
2022-07-27T15:38:58.323Z,81.10
2022-07-27T15:41:26.775Z,80.60
2022-07-27T15:43:56.719Z,80.50
2022-07-27T15:46:27.475Z,79.80
2022-07-27T15:48:56.592Z,79.70
2022-07-27T15:51:24.981Z,79.60
2022-07-27T15:53:53.641Z,79.30
2022-07-27T15:56:21.836Z,79.20
2022-07-27T15:58:50.195Z,80.20
2022-07-27T16:01:21.177Z,80.30
2022-07-27T16:03:50.007Z,79.20
2022-07-27T16:06:19.226Z,77.90
2022-07-27T16:08:48.461Z,78.10
2022-07-27T16:11:16.736Z,78.10
2022-07-27T16:13:44.937Z,77.80
2022-07-27T16:16:31.400Z,77.00
2022-07-27T16:19:12.645Z,76.80
2022-07-27T16:21:55.066Z,77.10
2022-07-27T16:24:25.150Z,79.00
2022-07-27T16:26:53.914Z,79.10
2022-07-27T16:29:23.810Z,80.00
2022-07-27T16:31:57.998Z,80.50
2022-07-27T16:34:28.491Z,80.90
2022-07-27T16:36:57.433Z,80.60
2022-07-27T16:39:26.416Z,80.80
2022-07-27T16:41:55.037Z,81.10
2022-07-27T16:44:23.292Z,81.40
2022-07-27T16:46:51.727Z,81.70
2022-07-27T16:49:20.381Z,81.70
2022-07-27T16:51:50.044Z,81.80
2022-07-27T16:54:18.331Z,81.70
2022-07-27T16:56:46.548Z,81.80
2022-07-27T16:59:15.718Z,81.50
2022-07-27T17:01:44.745Z,81.20
2022-07-27T17:04:13.062Z,80.90
2022-07-27T17:06:41.303Z,80.80
2022-07-27T17:09:11.233Z,79.80
2022-07-27T17:11:39.889Z,79.60
2022-07-27T17:14:11.822Z,79.40
2022-07-27T17:16:40.499Z,79.30
2022-07-27T17:19:08.735Z,78.50
2022-07-27T17:21:37.090Z,78.10
2022-07-27T17:24:06.187Z,78.10
2022-07-27T17:26:36.160Z,77.00
2022-07-27T17:29:04.958Z,76.70
2022-07-27T17:31:33.518Z,76.60
2022-07-27T17:34:02.860Z,76.80
2022-07-27T17:36:31.552Z,76.90
2022-07-27T17:39:00.743Z,77.50
2022-07-27T17:41:29.005Z,77.90
2022-07-27T17:43:58.681Z,78.30
2022-07-27T17:46:27.138Z,77.80
2022-07-27T17:48:55.819Z,77.90
2022-07-27T17:51:25.383Z,78.00
2022-07-27T17:53:53.812Z,78.10
2022-07-27T17:56:22.060Z,79.40
2022-07-27T17:58:50.908Z,79.30
2022-07-27T18:01:47.548Z,79.00
2022-07-27T18:04:09.023Z,78.80
2022-07-27T18:06:37.289Z,78.90
2022-07-27T18:09:07.066Z,79.40
2022-07-27T18:11:35.454Z,79.60
2022-07-27T18:14:03.682Z,79.50
2022-07-27T18:16:38.216Z,79.50
2022-07-27T18:19:09.180Z,79.50
2022-07-27T18:21:37.891Z,79.90
2022-07-27T18:24:07.050Z,80.30
2022-07-27T18:26:38.883Z,80.30
2022-07-27T18:29:07.774Z,80.30
2022-07-27T18:31:37.488Z,80.60
2022-07-27T18:34:09.294Z,80.60
2022-07-27T18:36:42.405Z,80.60
2022-07-27T18:39:11.183Z,80.70
2022-07-27T18:41:40.669Z,80.60
2022-07-27T18:44:09.069Z,80.60
2022-07-27T18:46:38.836Z,80.60
2022-07-27T18:49:07.941Z,80.60
2022-07-27T18:51:38.976Z,80.60
2022-07-27T18:54:09.671Z,81.00
2022-07-27T18:56:39.611Z,81.20
2022-07-27T18:59:11.032Z,81.20
2022-07-27T19:01:41.935Z,81.50
2022-07-27T19:04:10.265Z,81.50
2022-07-27T19:06:38.580Z,81.80
2022-07-27T19:09:07.963Z,82.10
2022-07-27T19:11:36.247Z,82.20
2022-07-27T19:14:05.188Z,82.50
2022-07-27T19:16:34.203Z,82.70
2022-07-27T19:19:04.221Z,82.80
2022-07-27T19:21:32.820Z,83.00
2022-07-27T19:24:01.372Z,83.20
2022-07-27T19:26:29.931Z,83.20
2022-07-27T19:28:58.531Z,83.60
2022-07-27T19:31:28.151Z,84.30
2022-07-27T19:33:56.585Z,84.70
2022-07-27T19:36:26.314Z,85.00
2022-07-27T19:38:55.052Z,85.30
2022-07-27T19:41:23.747Z,85.60
2022-07-27T19:43:52.082Z,85.20
2022-07-27T19:46:20.411Z,84.90
2022-07-27T19:48:48.797Z,84.60
2022-07-27T19:51:17.600Z,84.20
2022-07-27T19:53:47.274Z,84.00
2022-07-27T19:56:15.601Z,83.90
2022-07-27T19:58:43.887Z,83.80
2022-07-27T20:01:13.459Z,84.00
2022-07-27T20:03:53.797Z,84.40
2022-07-27T20:06:23.597Z,84.80
2022-07-27T20:08:55.831Z,85.40
2022-07-27T20:11:24.316Z,85.50
2022-07-27T20:13:52.991Z,85.80
2022-07-27T20:16:21.273Z,85.70
2022-07-27T20:18:49.799Z,85.50
2022-07-27T20:21:23.452Z,85.30
2022-07-27T20:23:54.177Z,84.90
2022-07-27T20:26:22.629Z,84.40
2022-07-27T20:28:51.345Z,83.60
2022-07-27T20:31:19.709Z,82.80
2022-07-27T20:33:48.665Z,81.80
2022-07-27T20:36:17.191Z,81.00
2022-07-27T20:38:45.417Z,81.00
2022-07-27T20:41:15.135Z,80.80
2022-07-27T20:43:43.344Z,81.20
2022-07-27T20:46:11.673Z,81.80
2022-07-27T20:48:42.124Z,82.60
2022-07-27T20:51:10.568Z,83.30
2022-07-27T20:58:38.022Z,83.60
2022-07-27T21:01:06.495Z,84.40
2022-07-27T21:03:34.873Z,84.40
2022-07-27T21:06:03.496Z,84.60
2022-07-27T21:08:31.809Z,84.80
